Time;durP1;ratioP1;P1;durP2;ratioP2;P2;SDS_P1;SDS_P2;PMS_P1;PMS_P2;Temp;Humidity;BMP_temperature;BMP_pressure;BME280_temperature;BME280_humidity;BME280_pressure;Samples;Min_cycle;Max_cycle;Signal;HPM_P1;HPM_P2
2021/11/10 00:00:47;;;;;;;31.33;10.85;;;;;;;-4.24;82.96;101422.01;1709622;82;21389;-78
2021/11/10 00:03:20;;;;;;;21.50;9.65;;;;;;;-4.29;82.90;101426.55;1700526;83;20897;-78
2021/11/10 00:05:50;;;;;;;33.28;11.30;;;;;;;-4.35;82.81;101427.23;1676092;84;20916;-78
2021/11/10 00:08:22;;;;;;;29.35;11.05;;;;;;;-4.41;82.80;101433.29;1694714;84;20871;-79
2021/11/10 00:10:55;;;;;;;47.65;15.38;;;;;;;-4.49;82.80;101436.83;1692153;83;20915;-79
2021/11/10 00:13:22;;;;;;;36.70;13.48;;;;;;;-4.56;82.83;101437.69;1689196;84;21200;-78
2021/11/10 00:15:53;;;;;;;35.73;12.93;;;;;;;-4.64;83.02;101441.25;1708045;83;20935;-78
2021/11/10 00:18:25;;;;;;;28.40;11.68;;;;;;;-4.70;83.22;101440.59;1712691;83;20919;-78
2021/11/10 00:20:55;;;;;;;26.37;11.45;;;;;;;-4.76;83.36;101443.44;1715092;82;20916;-78
2021/11/10 00:23:30;;;;;;;35.33;11.97;;;;;;;-4.79;83.58;101441.10;1654543;85;21406;-79
2021/11/10 00:26:05;;;;;;;34.03;14.18;;;;;;;-4.81;83.67;101447.13;1671605;84;20935;-78
2021/11/10 00:28:35;;;;;;;29.25;11.40;;;;;;;-4.84;83.93;101435.41;1694349;84;28633;-78
2021/11/10 00:31:07;;;;;;;31.55;12.05;;;;;;;-4.84;84.07;101434.58;1691204;83;20935;-78
2021/11/10 00:33:39;;;;;;;30.90;11.35;;;;;;;-4.86;84.10;101444.63;1697949;82;20947;-77
2021/11/10 00:36:15;;;;;;;30.97;11.48;;;;;;;-4.90;84.25;101444.63;1664254;84;20919;-77
2021/11/10 00:38:46;;;;;;;31.85;11.35;;;;;;;-4.94;84.32;101455.34;1701335;83;21734;-76
2021/11/10 00:41:18;;;;;;;29.00;11.00;;;;;;;-4.99;84.35;101454.51;1696619;82;20908;-76
2021/11/10 00:43:49;;;;;;;34.58;11.43;;;;;;;-5.02;84.36;101457.02;1663066;85;20948;-76
2021/11/10 00:46:21;;;;;;;31.85;12.15;;;;;;;-5.04;84.40;101454.17;1685506;83;20869;-76
2021/11/10 00:48:54;;;;;;;38.33;12.13;;;;;;;-5.08;84.46;101458.19;1697733;83;21433;-76
2021/11/10 00:51:20;;;;;;;28.65;11.33;;;;;;;-5.09;84.56;101456.02;1721913;82;21144;-76
2021/11/10 00:53:49;;;;;;;33.63;11.35;;;;;;;-5.11;84.66;101455.34;1726541;83;20931;-76
2021/11/10 00:56:18;;;;;;;39.30;11.53;;;;;;;-5.12;84.71;101448.81;1698127;82;21495;-77
2021/11/10 00:58:49;;;;;;;50.95;17.15;;;;;;;-5.14;84.80;101445.47;1717385;82;21388;-77
2021/11/10 01:01:18;;;;;;;115.32;39.38;;;;;;;-5.16;84.83;101456.84;1705201;83;20935;-76
2021/11/10 01:03:47;;;;;;;116.65;38.45;;;;;;;-5.21;85.38;101460.05;1701120;82;21134;-76
2021/11/10 01:06:18;;;;;;;96.22;32.35;;;;;;;-5.20;86.21;101460.89;1714133;83;20903;-76
2021/11/10 01:08:44;;;;;;;84.20;28.32;;;;;;;-5.14;86.61;101455.67;1723751;82;20908;-75
2021/11/10 01:11:16;;;;;;;77.00;26.40;;;;;;;-5.15;86.20;101461.20;1725427;83;20899;-76
2021/11/10 01:13:48;;;;;;;68.57;23.77;;;;;;;-5.22;85.82;101468.25;1690514;83;21427;-76
2021/11/10 01:16:14;;;;;;;72.20;25.95;;;;;;;-5.30;85.62;101484.31;1707771;82;21906;-76
2021/11/10 01:18:41;;;;;;;64.62;23.98;;;;;;;-5.35;85.83;101496.34;1671662;84;21495;-76
2021/11/10 01:21:13;;;;;;;63.78;23.77;;;;;;;-5.36;85.94;101497.34;1680832;84;21506;-76
2021/11/10 01:23:41;;;;;;;;;;;;;;;-5.36;86.02;101496.52;1676974;84;20940;-79
2021/11/10 01:26:13;;;;;;;51.92;15.38;;;;;;;-5.37;86.25;101468.07;1676045;83;20101;-78
2021/11/10 01:28:44;;;;;;;38.15;13.25;;;;;;;-5.33;86.86;101471.59;1726833;82;21103;-78
2021/11/10 01:31:11;;;;;;;33.05;12.40;;;;;;;-5.24;87.47;101472.44;1726248;83;20880;-78
2021/11/10 01:33:41;;;;;;;26.65;9.85;;;;;;;-5.15;87.62;101475.42;1692906;82;20854;-79
2021/11/10 01:36:23;;;;;;;27.52;11.50;;;;;;;-5.10;87.71;101481.63;1692727;83;20903;-78
2021/11/10 01:38:47;;;;;;;27.40;11.00;;;;;;;-5.02;87.94;101495.86;1723829;81;20907;-74
2021/11/10 01:41:34;;;;;;;29.63;10.23;;;;;;;-4.90;88.32;101491.51;1722715;83;21454;-74
2021/11/10 01:43:53;;;;;;;29.92;11.97;;;;;;;-4.77;88.59;101506.08;1714357;82;20950;-75
2021/11/10 01:46:27;;;;;;;30.17;10.88;;;;;;;-4.60;89.36;101511.39;1710265;82;20939;-75
2021/11/10 01:49:00;;;;;;;24.57;11.08;;;;;;;-4.54;88.74;101512.06;1664608;85;21529;-75
2021/11/10 01:51:33;;;;;;;26.95;10.63;;;;;;;-4.51;88.61;101518.42;1673830;85;20937;-75
2021/11/10 01:53:59;;;;;;;25.55;9.95;;;;;;;-4.43;88.72;101497.80;1683642;84;21202;-75
2021/11/10 01:56:30;;;;;;;23.18;9.58;;;;;;;-4.40;88.43;101477.86;1684274;84;20915;-75
2021/11/10 01:59:03;;;;;;;20.10;9.05;;;;;;;-4.34;88.33;101482.54;1695965;84;21419;-75
2021/11/10 02:01:44;;;;;;;22.58;8.48;;;;;;;-4.31;88.10;101439.30;1701075;84;20900;-75
2021/11/10 02:04:19;;;;;;;17.20;7.67;;;;;;;-4.28;87.98;101444.31;1693459;84;20952;-75
2021/11/10 02:06:47;;;;;;;16.05;7.60;;;;;;;-4.28;87.70;101448.34;1696262;84;21164;-75
2021/11/10 02:09:26;;;;;;;18.57;8.30;;;;;;;-4.30;87.37;101458.40;1717747;83;20935;-75
2021/11/10 02:11:58;;;;;;;18.05;8.10;;;;;;;-4.33;87.24;101477.52;1715715;83;20951;-75
2021/11/10 02:14:27;;;;;;;16.97;8.43;;;;;;;-4.36;87.21;101476.01;1677376;83;21448;-75
2021/11/10 02:16:59;;;;;;;20.95;8.55;;;;;;;-4.36;87.09;101484.05;1724464;83;20879;-75
2021/11/10 02:19:31;;;;;;;19.35;8.58;;;;;;;-4.39;86.90;101479.53;1672008;84;20907;-75
2021/11/10 02:22:15;;;;;;;19.98;8.15;;;;;;;-4.48;86.37;101475.20;1723691;83;20935;-77
2021/11/10 02:24:47;;;;;;;22.80;9.68;;;;;;;-4.59;86.42;101480.91;1697944;82;20947;-75
2021/11/10 02:27:17;;;;;;;26.75;9.53;;;;;;;-4.73;85.92;101483.80;1712504;82;20966;-76
2021/11/10 02:29:47;;;;;;;26.33;10.03;;;;;;;-4.88;85.73;101486.82;1726543;83;20994;-75
2021/11/10 02:32:19;;;;;;;21.85;9.93;;;;;;;-4.96;85.91;101490.84;1725430;82;21197;-75
2021/11/10 02:34:51;;;;;;;;;;;;;;;-5.03;86.02;101496.02;1700406;83;20880;-75
2021/11/10 02:37:20;;;;;;;;;;;;;;;-5.08;86.18;101490.33;1685244;83;20140;-75
2021/11/10 02:39:47;;;;;;;27.67;11.00;;;;;;;-5.14;86.14;101489.15;1701768;84;20458;-75
2021/11/10 02:42:19;;;;;;;35.30;12.50;;;;;;;-5.22;86.10;101489.67;1695911;84;20959;-75
2021/11/10 02:44:53;;;;;;;36.20;13.25;;;;;;;-5.29;86.24;101496.19;1693200;84;21490;-76
2021/11/10 02:47:28;;;;;;;45.63;17.17;;;;;;;-5.34;86.85;101497.19;1694277;84;21946;-75
2021/11/10 02:50:02;;;;;;;31.95;14.93;;;;;;;-5.33;87.71;101506.89;1708316;82;20889;-75
2021/11/10 02:52:30;;;;;;;36.65;12.70;;;;;;;-5.22;90.00;101515.95;1704006;83;21399;-75
2021/11/10 02:55:00;;;;;;;33.40;12.98;;;;;;;-5.13;90.05;101520.78;1714061;82;21413;-75
2021/11/10 02:57:28;;;;;;;43.65;14.93;;;;;;;-5.10;89.91;101525.31;1702381;82;21088;-75
2021/11/10 03:00:13;;;;;;;40.83;14.30;;;;;;;-5.03;90.26;101524.98;1716429;82;20896;-76
2021/11/10 03:02:42;;;;;;;34.92;12.43;;;;;;;-5.03;89.92;101526.33;1719108;83;20860;-76
2021/11/10 03:05:11;;;;;;;41.05;13.85;;;;;;;-5.06;89.54;101531.17;1663427;85;21447;-76
2021/11/10 03:07:42;;;;;;;52.80;16.55;;;;;;;-5.18;88.65;101532.49;1678856;85;20957;-76
2021/11/10 03:10:10;;;;;;;47.93;16.15;;;;;;;-5.29;88.26;101528.82;1704150;83;21155;-76
2021/11/10 03:12:45;;;;;;;32.63;12.43;;;;;;;-5.39;88.21;101531.64;1710038;82;20916;-77
2021/11/10 03:15:15;;;;;;;32.38;11.83;;;;;;;-5.42;88.79;101532.80;1723653;82;20875;-77
2021/11/10 03:17:49;;;;;;;;;;;;;;;-5.38;89.71;101527.46;1707147;83;20877;-76
2021/11/10 03:20:25;;;;;;;27.07;11.15;;;;;;;-5.33;89.76;101529.14;1689396;83;20086;-76
2021/11/10 03:22:57;;;;;;;29.05;11.28;;;;;;;-5.35;89.62;101525.80;1711547;83;21223;-75
2021/11/10 03:25:29;;;;;;;22.75;9.33;;;;;;;-5.36;89.59;101517.92;1688131;83;21458;-74
2021/11/10 03:27:59;;;;;;;22.85;9.20;;;;;;;-5.41;89.40;101513.06;1721362;83;21557;-75
2021/11/10 03:30:31;;;;;;;20.30;9.15;;;;;;;-5.45;89.17;101521.08;1717184;83;26283;-75
2021/11/10 03:33:07;;;;;;;19.80;8.60;;;;;;;-5.53;88.85;101522.40;1703736;83;21475;-75
2021/11/10 03:35:34;;;;;;;19.95;8.65;;;;;;;-5.57;88.86;101528.23;1707186;83;21711;-75
2021/11/10 03:38:04;;;;;;;22.15;9.15;;;;;;;-5.62;88.87;101534.08;1689342;83;20958;-75
2021/11/10 03:40:41;;;;;;;27.03;9.50;;;;;;;-5.67;88.53;101531.05;1666490;84;21605;-75
2021/11/10 03:43:11;;;;;;;23.57;9.05;;;;;;;-5.74;88.51;101525.50;1718658;83;20867;-75
2021/11/10 03:46:02;;;;;;;22.98;10.15;;;;;;;-5.81;88.52;101513.80;1694749;83;20994;-75
2021/11/10 03:48:16;;;;;;;23.57;9.08;;;;;;;-5.82;88.63;101508.11;1649224;86;21106;-76
2021/11/10 03:50:47;;;;;;;22.77;8.98;;;;;;;-5.80;88.79;101513.30;1718279;83;21466;-75
2021/11/10 03:53:15;;;;;;;19.30;7.22;;;;;;;-5.80;88.79;101521.33;1680137;84;20942;-75
2021/11/10 03:55:45;;;;;;;22.52;9.58;;;;;;;-5.80;88.69;101519.48;1692284;84;20908;-75
2021/11/10 03:58:16;;;;;;;24.67;9.13;;;;;;;-5.79;88.89;101518.99;1709725;83;21120;-76
2021/11/10 04:00:44;;;;;;;;;;;;;;;-5.76;88.91;101512.78;1714857;82;22215;-75
2021/11/10 04:03:25;;;;;;;20.37;9.30;;;;;;;-5.74;88.93;101519.31;1680561;83;20432;-76
2021/11/10 04:05:58;;;;;;;17.57;8.38;;;;;;;-5.75;88.99;101519.81;1672743;84;20899;-76
2021/11/10 04:08:28;;;;;;;24.55;9.10;;;;;;;-5.77;89.04;101519.14;1682818;83;20926;-75
2021/11/10 04:11:00;;;;;;;20.32;9.30;;;;;;;-5.78;89.24;101522.00;1692383;83;20975;-75
2021/11/10 04:13:33;;;;;;;23.30;9.38;;;;;;;-5.77;89.61;101522.31;1718118;82;21106;-76
2021/11/10 04:16:04;;;;;;;26.02;9.93;;;;;;;-5.76;89.81;101528.00;1662218;83;20906;-77
2021/11/10 04:18:34;;;;;;;26.55;9.95;;;;;;;-5.75;89.66;101525.66;1700166;83;21476;-76
2021/11/10 04:21:07;;;;;;;27.40;10.18;;;;;;;-5.77;89.63;101527.66;1707590;83;21279;-76
2021/11/10 04:23:44;;;;;;;16.20;8.40;;;;;;;-5.76;89.63;101526.16;1702685;84;20915;-75
2021/11/10 04:26:15;;;;;;;19.77;8.03;;;;;;;-5.73;89.81;101525.00;1686649;83;20874;-75
2021/11/10 04:28:46;;;;;;;21.85;8.50;;;;;;;-5.64;90.29;101532.06;1674266;84;21465;-75
2021/11/10 04:31:12;;;;;;;20.90;8.05;;;;;;;-5.53;90.68;101534.44;1692331;84;21034;-75
2021/11/10 04:33:40;;;;;;;18.27;7.42;;;;;;;-5.44;90.91;101529.45;1712156;83;20886;-75
2021/11/10 04:36:13;;;;;;;26.87;9.60;;;;;;;-5.35;90.90;101545.03;1726939;83;20882;-75
2021/11/10 04:38:41;;;;;;;23.05;10.23;;;;;;;-5.27;90.92;101545.56;1726813;81;21076;-75
2021/11/10 04:41:14;;;;;;;24.87;10.05;;;;;;;-5.22;91.10;101544.56;1688370;84;20995;-75
2021/11/10 04:43:45;;;;;;;23.20;9.10;;;;;;;-5.21;90.88;101544.91;1692444;84;20945;-75
2021/11/10 04:46:25;;;;;;;20.55;8.10;;;;;;;-5.22;90.57;101542.72;1678449;84;20988;-75
2021/11/10 04:48:58;;;;;;;25.45;9.65;;;;;;;-5.25;90.17;101546.23;1661446;84;20891;-76
2021/11/10 04:51:23;;;;;;;28.57;9.38;;;;;;;-5.30;89.98;101545.38;1695571;84;21691;-75
2021/11/10 04:53:56;;;;;;;24.82;8.15;;;;;;;-5.33;89.92;101543.87;1696903;84;21464;-74
2021/11/10 04:56:29;;;;;;;20.20;8.48;;;;;;;-5.35;89.82;101541.86;1699686;84;21493;-74
2021/11/10 04:59:08;;;;;;;23.07;8.65;;;;;;;-5.38;89.73;101540.01;1660528;85;20904;-76
2021/11/10 05:01:43;;;;;;;21.27;8.78;;;;;;;-5.38;89.85;101540.84;1637966;86;21391;-75
2021/11/10 05:04:16;;;;;;;26.35;11.03;;;;;;;-5.40;89.74;101522.77;1624548;87;20966;-75
2021/11/10 05:06:46;;;;;;;32.70;14.00;;;;;;;-5.43;89.67;101519.08;1694816;83;20904;-75
2021/11/10 05:09:19;;;;;;;29.65;13.28;;;;;;;-5.44;89.61;101531.29;1689742;83;21023;-77
2021/11/10 05:11:51;;;;;;;35.60;9.95;;;;;;;-5.44;89.79;101536.64;1718678;83;21456;-75
2021/11/10 05:14:20;;;;;;;18.70;8.78;;;;;;;-5.40;89.81;101525.95;1713177;83;20908;-76
2021/11/10 05:16:50;;;;;;;26.45;8.15;;;;;;;-5.38;89.84;101530.14;1722013;83;21434;-76
2021/11/10 05:19:20;;;;;;;15.78;8.03;;;;;;;-5.36;89.84;101521.44;1723615;83;21057;-75
2021/11/10 05:21:49;;;;;;;17.87;7.08;;;;;;;-5.33;89.88;101525.13;1712119;82;20932;-75
2021/11/10 05:24:26;;;;;;;20.65;7.70;;;;;;;-5.28;89.96;101529.99;1694397;83;20958;-75
2021/11/10 05:26:58;;;;;;;26.07;9.05;;;;;;;-5.22;90.05;101536.03;1721332;83;20919;-74
2021/11/10 05:29:26;;;;;;;21.30;8.85;;;;;;;-5.15;90.17;101545.55;1686483;83;21111;-77
2021/11/10 05:31:54;;;;;;;33.90;10.45;;;;;;;-5.09;90.21;101551.09;1687387;83;21586;-75
2021/11/10 05:34:27;;;;;;;21.90;8.95;;;;;;;-5.01;90.26;101552.95;1657834;85;20984;-75
2021/11/10 05:37:00;;;;;;;20.50;8.70;;;;;;;-4.97;89.99;101563.66;1674653;83;21445;-77
2021/11/10 05:39:28;;;;;;;35.80;9.03;;;;;;;-4.96;89.65;101562.66;1683539;82;21476;-76
2021/11/10 05:41:58;;;;;;;15.50;7.28;;;;;;;-4.97;89.33;101574.88;1681463;84;20948;-73
2021/11/10 05:44:27;;;;;;;17.73;7.25;;;;;;;-5.01;89.20;101579.23;1698442;83;21000;-73
2021/11/10 05:46:58;;;;;;;20.48;7.35;;;;;;;-5.00;89.38;101586.77;1689758;84;21494;-71
2021/11/10 05:49:31;;;;;;;17.10;6.95;;;;;;;-4.98;89.63;101592.80;1698938;84;20947;-72
2021/11/10 05:52:00;;;;;;;22.25;7.65;;;;;;;-5.01;89.27;101595.80;1699347;83;21012;-73
2021/11/10 05:54:38;;;;;;;17.73;8.00;;;;;;;-5.05;89.31;101589.94;1719970;83;21137;-72
2021/11/10 05:57:13;;;;;;;29.23;10.93;;;;;;;-5.04;89.78;101584.08;1672551;84;20915;-75
2021/11/10 05:59:50;;;;;;;28.95;11.33;;;;;;;-5.00;90.07;101586.27;1681570;84;20912;-73
2021/11/10 06:02:22;;;;;;;32.63;11.80;;;;;;;-4.97;90.26;101577.05;1693503;83;20871;-75
2021/11/10 06:05:02;;;;;;;27.48;10.85;;;;;;;-4.89;90.39;101575.73;1682452;83;20944;-74
2021/11/10 06:07:34;;;;;;;25.45;10.78;;;;;;;-4.80;90.51;101577.92;1723184;83;21937;-75
2021/11/10 06:10:04;;;;;;;41.70;12.50;;;;;;;-4.71;90.89;101573.73;1714728;83;20937;-74
2021/11/10 06:12:37;;;;;;;;;;;;;;;-4.58;91.01;101569.19;1716020;82;20914;-74
2021/11/10 06:15:09;;;;;;;27.25;10.15;;;;;;;-4.47;91.04;101565.34;1702525;83;20131;-74
2021/11/10 06:17:37;;;;;;;24.12;10.63;;;;;;;-4.36;91.11;101561.81;1705476;83;20897;-72
2021/11/10 06:20:09;;;;;;;28.50;10.43;;;;;;;-4.24;91.02;101573.02;1705873;82;20883;-74
2021/11/10 06:22:37;;;;;;;32.13;12.28;;;;;;;-4.12;90.92;101582.40;1715303;83;20854;-76
2021/11/10 06:25:10;;;;;;;25.32;9.88;;;;;;;-4.00;90.82;101583.69;1705054;83;21441;-73
2021/11/10 06:27:40;;;;;;;22.80;10.00;;;;;;;-3.89;90.69;101573.59;1687679;83;20863;-75
2021/11/10 06:30:16;;;;;;;20.65;9.53;;;;;;;-3.79;90.51;101576.92;1691570;83;20894;-73
2021/11/10 06:33:01;;;;;;;23.10;10.43;;;;;;;-3.68;90.44;101582.77;1675024;83;20907;-75
2021/11/10 06:35:20;;;;;;;26.45;11.15;;;;;;;-3.56;90.29;101570.30;1682000;84;20911;-75
2021/11/10 06:37:50;;;;;;;45.45;12.23;;;;;;;-3.40;90.67;101574.23;1685194;83;21019;-74
2021/11/10 06:40:25;;;;;;;31.75;11.73;;;;;;;-3.16;91.48;101569.23;1687856;84;20867;-78
2021/11/10 06:42:55;;;;;;;31.50;11.30;;;;;;;-2.99;90.46;101568.13;1705945;83;26754;-76
2021/11/10 06:45:32;;;;;;;26.47;10.37;;;;;;;-2.87;89.91;101563.98;1696405;83;21253;-76
2021/11/10 06:48:03;;;;;;;27.55;11.00;;;;;;;-2.80;89.20;101556.88;1698770;84;20940;-79
2021/11/10 06:50:29;;;;;;;25.80;10.40;;;;;;;-2.77;88.67;101556.52;1703732;84;20981;-83
2021/11/10 06:52:59;;;;;;;19.82;9.55;;;;;;;-2.71;88.39;101553.12;1689432;84;20908;-77
2021/11/10 06:55:29;;;;;;;19.12;9.68;;;;;;;-2.64;88.11;101556.43;1695037;82;20887;-76
2021/11/10 06:57:57;;;;;;;40.73;15.43;;;;;;;-2.61;87.48;101556.06;1696417;84;22335;-75
2021/11/10 07:00:28;;;;;;;63.63;23.83;;;;;;;-2.58;87.17;101559.74;1697373;83;20966;-76
2021/11/10 07:02:57;;;;;;;86.25;29.15;;;;;;;-2.55;86.96;101560.22;1688125;83;20931;-75
2021/11/10 07:05:26;;;;;;;82.25;30.15;;;;;;;-2.47;86.93;101560.15;1722452;82;20886;-76
2021/11/10 07:07:55;;;;;;;65.72;23.83;;;;;;;-2.37;86.75;101561.24;1710087;82;21418;-77
2021/11/10 07:10:27;;;;;;;85.87;30.25;;;;;;;-2.27;86.57;101563.14;1699501;83;20896;-78
2021/11/10 07:12:57;;;;;;;114.15;35.17;;;;;;;-2.15;86.37;101561.67;1703561;83;20875;-77
2021/11/10 07:15:26;;;;;;;90.92;26.12;;;;;;;-2.02;86.30;101556.50;1708124;83;21007;-76
2021/11/10 07:17:56;;;;;;;68.05;20.52;;;;;;;-1.88;85.90;101554.00;1712595;83;20877;-79
2021/11/10 07:20:30;;;;;;;40.20;15.13;;;;;;;-1.76;85.35;101544.44;1658757;83;21478;-82
2021/11/10 07:23:00;;;;;;;33.15;11.18;;;;;;;-1.71;84.64;101540.64;1706062;84;21194;-81
2021/11/10 07:25:27;;;;;;;30.40;13.05;;;;;;;-1.67;84.42;101545.47;1679646;84;20907;-81
2021/11/10 07:27:54;;;;;;;45.38;16.35;;;;;;;-1.63;84.10;101545.93;1710545;84;20903;-82
2021/11/10 07:30:27;;;;;;;37.50;19.00;;;;;;;-1.57;83.94;101550.57;1697967;84;21534;-83
2021/11/10 07:32:56;;;;;;;50.12;22.02;;;;;;;-1.50;83.57;101552.00;1709327;84;20867;-80
2021/11/10 07:35:36;;;;;;;31.93;16.62;;;;;;;-1.41;83.55;101558.45;1702527;83;21173;-79
2021/11/10 07:38:08;;;;;;;40.12;17.07;;;;;;;-1.25;83.45;101556.56;1707738;84;20842;-80
2021/11/10 07:40:40;;;;;;;38.73;16.30;;;;;;;-1.12;83.19;101560.22;1703270;84;20914;-78
2021/11/10 07:43:11;;;;;;;34.03;15.00;;;;;;;-0.95;83.36;101567.56;1677567;84;21522;-76
2021/11/10 07:45:52;;;;;;;33.98;14.07;;;;;;;-0.80;82.76;101568.34;1701022;83;20919;-75
2021/11/10 07:48:22;;;;;;;38.53;16.27;;;;;;;-0.67;82.33;101566.30;1697444;84;21145;-82
2021/11/10 07:50:51;;;;;;;30.90;14.20;;;;;;;-0.56;82.01;101561.70;1702012;82;20964;-75
2021/11/10 07:53:22;;;;;;;32.33;13.10;;;;;;;-0.42;81.42;101558.09;1697220;83;21449;-77
2021/11/10 07:55:51;;;;;;;20.62;8.35;;;;;;;-0.30;81.33;101558.40;1699970;82;20954;-80
2021/11/10 07:58:25;;;;;;;18.40;5.45;;;;;;;-0.26;80.29;101550.23;1697673;83;20983;-84
2021/11/10 08:01:01;;;;;;;14.60;5.60;;;;;;;-0.18;79.77;101548.73;1687412;83;20879;-84
2021/11/10 08:03:35;;;;;;;10.68;5.28;;;;;;;-0.10;78.97;101550.45;1644743;86;20914;-74
2021/11/10 08:06:07;;;;;;;12.78;4.97;;;;;;;-0.02;77.95;101549.79;1687349;83;20947;-72
2021/11/10 08:08:37;;;;;;;13.08;4.83;;;;;;;0.06;77.06;101551.98;1644995;85;21540;-72
2021/11/10 08:11:07;;;;;;;10.50;3.55;;;;;;;0.38;77.14;101552.70;1653771;85;21495;-73
2021/11/10 08:13:38;;;;;;;11.50;4.40;;;;;;;1.09;75.65;101549.10;1648738;86;21759;-73
2021/11/10 08:16:09;;;;;;;15.93;5.42;;;;;;;1.88;73.54;101545.56;1650073;86;20885;-73
2021/11/10 08:18:43;;;;;;;11.75;5.65;;;;;;;2.65;70.59;101556.92;1640452;84;20941;-84
2021/11/10 08:21:10;;;;;;;12.73;4.60;;;;;;;3.95;65.59;101540.46;1645701;86;20894;-85
2021/11/10 08:23:37;;;;;;;10.63;4.45;;;;;;;3.95;65.59;101540.46;1666802;83;20960;-82
2021/11/10 08:26:05;;;;;;;9.65;4.15;;;;;;;4.61;62.64;101545.17;1725531;82;21255;-77
2021/11/10 08:28:31;;;;;;;11.38;4.50;;;;;;;5.10;58.13;101544.61;1724091;83;20894;-78
2021/11/10 08:30:59;;;;;;;6.17;3.02;;;;;;;5.38;57.95;101545.33;1708414;82;20941;-88
2021/11/10 08:33:27;;;;;;;7.67;3.77;;;;;;;5.69;56.63;101551.86;1696228;83;20906;-74
2021/11/10 08:35:54;;;;;;;9.00;3.65;;;;;;;6.00;54.67;101555.34;1648348;85;20917;-77
2021/11/10 08:38:20;;;;;;;7.20;3.20;;;;;;;6.40;53.51;101549.42;1686783;84;21061;-76
2021/11/10 08:40:49;;;;;;;7.47;3.50;;;;;;;6.73;52.17;101549.30;1666516;84;21426;-84
2021/11/10 08:43:16;;;;;;;8.83;3.72;;;;;;;6.84;49.78;101542.98;1685660;84;20987;-74
2021/11/10 08:45:45;;;;;;;9.50;4.17;;;;;;;6.73;50.16;101537.02;1696886;83;20942;-84
2021/11/10 08:48:12;;;;;;;11.05;3.85;;;;;;;6.72;50.29;101541.65;1688938;84;21529;-77
2021/11/10 08:50:42;;;;;;;8.10;4.00;;;;;;;6.94;50.03;101540.42;1701916;84;21751;-77
2021/11/10 08:53:11;;;;;;;9.05;4.83;;;;;;;7.17;49.74;101531.30;1697323;84;20943;-78
2021/11/10 08:55:38;;;;;;;9.35;4.33;;;;;;;7.42;48.74;101534.50;1680842;83;20888;-78
2021/11/10 08:58:05;;;;;;;8.33;3.90;;;;;;;7.60;46.67;101527.95;1689980;83;21544;-85
2021/11/10 09:00:33;;;;;;;12.82;4.10;;;;;;;7.55;46.58;101519.13;1701904;83;20943;-80
2021/11/10 09:03:01;;;;;;;9.85;4.83;;;;;;;7.48;46.03;101522.58;1692563;83;21151;-76
2021/11/10 09:05:28;;;;;;;8.70;4.05;;;;;;;7.37;45.69;101521.28;1706676;84;21463;-78
2021/11/10 09:07:55;;;;;;;6.78;3.72;;;;;;;7.18;44.48;101520.67;1697773;83;20970;-78
2021/11/10 09:10:23;;;;;;;5.87;2.87;;;;;;;7.20;45.31;101522.62;1715279;83;20912;-76
2021/11/10 09:12:50;;;;;;;6.72;3.58;;;;;;;7.49;44.52;101531.08;1686907;84;20916;-75
2021/11/10 09:15:18;;;;;;;5.12;1.77;;;;;;;7.89;43.67;101525.42;1708594;83;21830;-76
2021/11/10 09:17:45;;;;;;;6.22;2.67;;;;;;;8.24;42.43;101517.42;1678091;84;20885;-73
2021/11/10 09:20:15;;;;;;;10.75;5.05;;;;;;;8.65;41.15;101518.00;1677947;85;20904;-78
2021/11/10 09:22:43;;;;;;;17.67;5.53;;;;;;;8.79;41.17;101520.06;1682968;85;21479;-74
2021/11/10 09:25:11;;;;;;;7.72;3.27;;;;;;;8.71;41.74;101522.42;1680114;85;21031;-74
2021/11/10 09:27:39;;;;;;;8.13;5.10;;;;;;;8.81;40.65;101527.48;1684854;84;21236;-75
2021/11/10 09:30:09;;;;;;;9.30;4.33;;;;;;;8.91;40.43;101520.76;1693489;84;20909;-75
2021/11/10 09:32:36;;;;;;;7.92;4.00;;;;;;;8.92;40.45;101533.91;1678838;84;20959;-74
2021/11/10 09:35:06;;;;;;;6.97;4.03;;;;;;;9.05;40.63;101528.03;1683153;84;20985;-75
2021/11/10 09:37:33;;;;;;;5.75;3.33;;;;;;;9.13;40.50;101527.58;1677900;84;21013;-78
2021/11/10 09:40:02;;;;;;;10.90;4.30;;;;;;;9.38;39.69;101521.49;1690923;84;21154;-80
2021/11/10 09:42:29;;;;;;;7.55;4.10;;;;;;;9.51;39.76;101514.76;1658014;86;21119;-78
2021/11/10 09:44:55;;;;;;;12.73;4.45;;;;;;;9.73;39.20;101520.98;1681246;84;21043;-81
2021/11/10 09:47:22;;;;;;;7.12;3.05;;;;;;;9.83;39.14;101518.29;1716132;82;20970;-80
2021/11/10 09:49:50;;;;;;;7.78;3.98;;;;;;;10.09;38.75;101516.55;1719055;83;21817;-80
2021/11/10 09:52:17;;;;;;;5.80;2.80;;;;;;;10.36;37.67;101521.14;1695533;83;21127;-77
2021/11/10 09:54:44;;;;;;;7.20;2.80;;;;;;;10.42;37.13;101514.55;1713685;83;21031;-77
2021/11/10 09:57:11;;;;;;;8.75;3.22;;;;;;;10.26;36.86;101527.39;1698934;84;21411;-73
2021/11/10 09:59:38;;;;;;;9.85;3.95;;;;;;;9.98;36.97;101527.72;1727867;82;21525;-75
2021/11/10 10:02:11;;;;;;;12.43;3.40;;;;;;;9.89;36.87;101532.33;1712803;82;21414;-79
2021/11/10 10:04:34;;;;;;;7.85;3.27;;;;;;;9.84;36.07;101528.72;1678871;85;21140;-74
2021/11/10 10:07:02;;;;;;;4.83;2.67;;;;;;;9.91;35.23;101535.63;1686910;84;20900;-79
2021/11/10 10:09:31;;;;;;;7.17;3.30;;;;;;;9.90;35.81;101529.87;1693359;84;21036;-73
2021/11/10 10:11:57;;;;;;;6.40;3.52;;;;;;;9.82;35.87;101523.49;1693174;84;20903;-80
2021/11/10 10:14:25;;;;;;;7.28;3.50;;;;;;;9.87;36.40;101518.05;1699310;82;20931;-74
2021/11/10 10:16:52;;;;;;;10.05;3.30;;;;;;;10.17;35.71;101517.43;1681376;83;21121;-78
2021/11/10 10:22:28;;;;;;;8.65;3.20;;;;;;;10.81;33.80;101510.34;1708051;82;20902;-81
2021/11/10 10:24:56;;;;;;;5.97;3.17;;;;;;;10.69;33.54;101507.53;1707138;82;20898;-79
2021/11/10 10:27:32;;;;;;;6.17;3.20;;;;;;;10.43;34.06;101502.48;1707600;83;20933;-73
2021/11/10 10:30:26;;;;;;;6.17;3.15;;;;;;;10.24;34.57;101505.70;1706875;83;21137;-73
2021/11/10 10:33:02;;;;;;;7.47;3.15;;;;;;;10.37;34.49;101512.64;1712751;83;21492;-73
2021/11/10 10:35:32;;;;;;;9.23;3.77;;;;;;;10.47;33.62;101516.78;1685800;83;20894;-77
2021/11/10 10:38:00;;;;;;;5.05;2.90;;;;;;;10.31;34.17;101515.63;1702560;83;20914;-74
2021/11/10 10:40:30;;;;;;;7.30;3.67;;;;;;;10.34;33.53;101509.59;1680418;83;21463;-75
2021/11/10 10:42:57;;;;;;;5.85;2.45;;;;;;;10.41;33.53;101498.63;1699511;83;21091;-78
2021/11/10 10:45:39;;;;;;;5.78;2.95;;;;;;;10.40;33.13;101490.11;1707437;83;20956;-72
2021/11/10 10:48:19;;;;;;;4.83;2.30;;;;;;;10.21;34.01;101496.62;1703944;83;20982;-75
2021/11/10 10:51:00;;;;;;;4.40;2.45;;;;;;;10.19;33.37;101491.95;1706015;83;20895;-74
2021/11/10 10:53:39;;;;;;;4.47;2.37;;;;;;;10.30;32.87;101487.34;1724253;83;20915;-72
2021/11/10 10:56:34;;;;;;;15.70;5.40;;;;;;;10.39;32.15;101485.74;1715215;83;21427;-76
2021/11/10 10:59:09;;;;;;;13.53;4.33;;;;;;;10.40;32.66;101468.14;1719511;83;20861;-70
2021/11/10 11:01:47;;;;;;;8.60;3.58;;;;;;;10.62;32.25;101464.39;1713613;82;20947;-81
2021/11/10 11:04:16;;;;;;;5.10;3.15;;;;;;;10.88;31.69;101462.00;1715899;82;20951;-74
2021/11/10 11:06:49;;;;;;;6.50;3.52;;;;;;;10.90;32.02;101462.00;1723753;83;20908;-79
2021/11/10 11:09:33;;;;;;;5.75;3.20;;;;;;;11.13;31.66;101456.52;1718847;82;20872;-81
2021/11/10 11:12:12;;;;;;;8.28;3.40;;;;;;;11.46;31.05;101458.47;1707903;83;20908;-77
2021/11/10 11:14:45;;;;;;;6.33;3.00;;;;;;;11.55;30.53;101450.73;1723193;81;20889;-75
2021/11/10 11:17:23;;;;;;;10.80;3.67;;;;;;;11.08;30.39;101450.19;1719556;83;21455;-78
2021/11/10 11:20:11;;;;;;;14.60;4.87;;;;;;;10.43;30.74;101448.94;1700608;84;21002;-76
2021/11/10 11:22:46;;;;;;;11.70;4.00;;;;;;;9.77;30.79;101457.66;1727923;82;21125;-78
2021/11/10 11:25:33;;;;;;;18.55;6.78;;;;;;;9.13;31.55;101450.86;1730060;83;21027;-74
2021/11/10 11:28:13;;;;;;;11.40;4.67;;;;;;;8.56;32.18;101446.45;1730706;83;20868;-74
2021/11/10 11:30:47;;;;;;;8.20;3.58;;;;;;;8.13;33.06;101443.95;1726417;83;20934;-77
2021/11/10 11:33:18;;;;;;;14.70;6.03;;;;;;;7.85;33.51;101455.07;1727098;82;20899;-76
2021/11/10 11:35:50;;;;;;;19.60;7.62;;;;;;;7.59;34.45;101451.13;1701897;83;21831;-74
2021/11/10 11:38:23;;;;;;;17.32;5.00;;;;;;;7.43;35.10;101448.72;1719225;81;20896;-78
2021/11/10 11:40:51;;;;;;;;;;;;;;;7.48;34.53;101447.97;1725918;81;20939;-80